Meteo Giornale » Osservazioni meteo Slovenia » Ljubljana-Brnik

ore: 21:30 - Osservazioni Meteo Ljubljana-Brnik
Lat. 46° 13' N Lon. 14° 29' E Alt. 385 metri s.l.m.

molto_nuvoloso Europe/Ljubljana

18 °C

Molto Nuvoloso

Temp. 24 Ore

13 °C

25 °C

Ovest

7.4 Km/h

Dew point 17 °C

Umidità 93 %

Visibilità  10 Km

Il sole sorge alle ore 05:44

Il sole tramonta alle ore 20:31

Data e Ora Cielo e Fenomeni T °C DP °C Um. % Pres. hPa Vis. km Vento km/h
Oggi h: 21:30 molto_nuvoloso Molto Nuvoloso 18 17 93 1015 10 O 7.4
Oggi h: 21:00 molto_nuvoloso Rovescio nelle Vicinanze 19 17 88 1015 10 O 9.3
Oggi h: 20:30 molto_nuvoloso Rovescio nelle Vicinanze 19 17 88 1014 10 O 9.3
Oggi h: 20:00 molto_nuvoloso Molto Nuvoloso 20 17 82 1014 10 O 7.4
Oggi h: 19:30 molto_nuvoloso Molto Nuvoloso 20 17 82 1014 10 O 9.3
Oggi h: 19:00 nuvoloso Nuvoloso 21 18 82 1013 10 O 7.4
Oggi h: 18:30 poco_nuvoloso Poco Nuvoloso 23 14 56 1013 10 N 1.8
Oggi h: 18:00 poco_nuvoloso Poco Nuvoloso 22 16 68 1013 10 N 0
Oggi h: 17:00 nuvoloso_piovaschi Debole Rovescio di Pioggia 21 17 77 1014 10 NO 11.1
Oggi h: 16:30 nuvoloso_piovaschi Debole Rovescio di Pioggia 20 17 82 1015 10 O 11.1
Oggi h: 16:00 molto_nuvoloso Molto Nuvoloso 21 16 73 1015 10 NO 9.3
Oggi h: 15:30 nuvoloso_temporali Temporale con Pioggia Debole 21 18 82 1014 10 O 11.1
Oggi h: 15:00 coperto_temporali Temporale 24 16 60 1014 10 S/SE 7.4
Oggi h: 14:30 nuvoloso Nuvoloso 24 16 60 1014 10 E/NE 7.4
Oggi h: 14:00 nuvoloso Nuvoloso 25 15 53 1015 10 N 5.5
Oggi h: 13:30 nuvoloso Nuvoloso 24 15 57 1015 10 N 3.7
Oggi h: 13:00 nuvoloso Nuvoloso 24 15 57 1016 10 E/SE 7.4
Oggi h: 12:30 poco_nuvoloso Poco Nuvoloso 23 16 64 1016 10 N 5.5
Oggi h: 12:00 poco_nuvoloso Poco Nuvoloso 22 15 64 1016 10 N 5.5
Oggi h: 11:30 poco_nuvoloso Poco Nuvoloso 22 16 68 1017 10 N 3.7
Oggi h: 11:00 poco_nuvoloso Poco Nuvoloso 21 15 68 1018 10 N 1.8
Oggi h: 10:30 nuvoloso Nuvoloso 20 16 77 1018 10 N 5.5
Oggi h: 10:00 nuvoloso Nuvoloso 20 15 72 1018 10 N 1.8
Oggi h: 09:30 molto_nuvoloso Molto Nuvoloso 19 15 77 1018 10 N 5.5
Oggi h: 09:00 nuvoloso Nuvoloso 17 14 82 1017 10 N 1.8
Oggi h: 08:30 molto_nuvoloso Molto Nuvoloso 17 15 88 1018 10 N 0
Oggi h: 08:00 nuvoloso Nuvoloso 16 14 87 1018 10 N 1.8
Oggi h: 07:30 nuvoloso Nuvoloso 16 14 87 1018 10 N 3.7
Oggi h: 07:00 sereno Sereno 14 14 100 1017 10 N 3.7
Oggi h: 06:30 sereno Sereno 13 13 100 1017 10 N 5.5
Oggi h: 06:00 poco_nuvoloso Poco Nuvoloso 13 12 93 1017 10 N 5.5
Oggi h: 05:30 nebbia Nebbia a Strati 13 13 100 1017 10 N 3.7
Oggi h: 05:00 poco_nuvoloso Poco Nuvoloso 14 13 93 1017 10 N 0
Oggi h: 04:30 poco_nuvoloso Poco Nuvoloso 14 13 93 1017 10 N 5.5
Oggi h: 04:00 poco_nuvoloso Poco Nuvoloso 14 13 93 1017 10 N 1.8
Oggi h: 03:30 poco_nuvoloso Poco Nuvoloso 15 14 93 1017 10 N 5.5
Oggi h: 03:00 nuvoloso Nuvoloso 16 15 93 1017 10 O/NO 11.1
Oggi h: 02:30 nuvoloso Nuvoloso 16 14 87 1017 10 O/NO 13
Oggi h: 02:00 nuvoloso Nuvoloso 16 15 93 1017 10 O/NO 13
Oggi h: 01:30 molto_nuvoloso Molto Nuvoloso 16 15 93 1017 10 O/NO 9.3
Oggi h: 01:00 nuvoloso Nuvoloso 15 15 100 1017 10 N 3.7
Oggi h: 00:30 molto_nuvoloso Molto Nuvoloso 16 15 93 1017 10 N 3.7
Oggi h: 00:00 molto_nuvoloso Molto Nuvoloso 16 15 93 1017 10 N 3.7
Ieri h: 23:30 nuvoloso Nuvoloso 16 15 93 1016 10 O/NO 7.4
Ieri h: 23:00 nuvoloso Nuvoloso 16 16 100 1016 10 N 3.7